createdAt,value
2023-04-25T00:01:44.135Z,100224.50
2023-04-25T00:04:13.213Z,100222.88
2023-04-25T00:06:41.576Z,100223.59
2023-04-25T00:09:11.260Z,100217.38
2023-04-25T00:11:39.379Z,100223.59
2023-04-25T00:14:12.139Z,100230.47
2023-04-25T00:16:42.607Z,100228.38
2023-04-25T00:19:10.888Z,100215.56
2023-04-25T00:21:42.256Z,100216.88
2023-04-25T00:24:10.386Z,100208.34
2023-04-25T00:26:38.607Z,100214.31
2023-04-25T00:29:06.772Z,100213.34
2023-04-25T00:31:34.886Z,100202.00
2023-04-25T00:34:03.260Z,100205.13
2023-04-25T00:36:31.422Z,100211.63
2023-04-25T00:38:59.534Z,100205.63
2023-04-25T00:41:28.125Z,100199.75
2023-04-25T00:43:57.506Z,100202.66
2023-04-25T00:46:25.585Z,100195.94
2023-04-25T00:48:54.053Z,100200.44
2023-04-25T00:51:22.845Z,100200.44
2023-04-25T00:54:47.052Z,100194.47
2023-04-25T00:57:15.637Z,100197.47
2023-04-25T00:59:49.858Z,100188.84
2023-04-25T01:02:22.078Z,100190.38
2023-04-25T01:04:50.427Z,100196.19
2023-04-25T01:07:19.230Z,100186.22
2023-04-25T01:09:48.124Z,100181.72
2023-04-25T01:12:16.480Z,100187.44
2023-04-25T01:14:44.985Z,100193.59
2023-04-25T01:17:14.557Z,100185.88
2023-04-25T01:19:49.508Z,100181.50
2023-04-25T01:22:18.116Z,100187.59
2023-04-25T01:24:47.485Z,100186.16
2023-04-25T01:27:16.542Z,100188.09
2023-04-25T01:29:44.925Z,100189.06
2023-04-25T01:32:13.176Z,100185.75
2023-04-25T01:34:41.837Z,100184.19
2023-04-25T01:37:09.883Z,100181.00
2023-04-25T01:39:38.124Z,100184.63
2023-04-25T01:42:06.568Z,100176.69
2023-04-25T01:44:35.026Z,100170.25
2023-04-25T01:47:03.124Z,100170.59
2023-04-25T01:49:31.462Z,100168.03
2023-04-25T01:51:59.738Z,100169.97
2023-04-25T01:57:30.053Z,100165.81
2023-04-25T02:00:04.243Z,100156.91
2023-04-25T02:02:33.136Z,100162.38
2023-04-25T02:05:01.466Z,100156.38
2023-04-25T02:07:29.842Z,100149.44
2023-04-25T02:10:01.020Z,100146.13
2023-04-25T02:12:29.590Z,100148.03
2023-04-25T02:14:57.910Z,100149.25
2023-04-25T02:17:26.812Z,100150.00
2023-04-25T02:19:57.452Z,100141.97
2023-04-25T02:22:28.216Z,100148.81
2023-04-25T02:24:59.480Z,100141.63
2023-04-25T02:27:27.778Z,100145.03
2023-04-25T02:29:55.937Z,100144.72
2023-04-25T02:32:24.017Z,100141.28
2023-04-25T02:34:51.940Z,100142.97
2023-04-25T02:37:19.971Z,100139.94
2023-04-25T02:39:49.794Z,100132.19
2023-04-25T02:42:18.884Z,100127.94
2023-04-25T02:44:46.975Z,100138.00
2023-04-25T02:47:15.176Z,100133.13
2023-04-25T02:49:43.549Z,100142.31
2023-04-25T02:52:11.785Z,100135.38
2023-04-25T02:54:41.751Z,100136.63
2023-04-25T02:57:10.865Z,100130.75
2023-04-25T02:59:39.252Z,100131.75
2023-04-25T03:02:07.329Z,100139.22
2023-04-25T03:04:38.369Z,100141.31
2023-04-25T03:07:11.433Z,100140.09
2023-04-25T03:09:39.512Z,100131.59
2023-04-25T03:12:08.453Z,100142.06
2023-04-25T03:14:36.799Z,100137.53
2023-04-25T03:17:05.042Z,100143.47
2023-04-25T03:19:33.337Z,100137.69
2023-04-25T03:22:01.317Z,100146.31
2023-04-25T03:24:29.697Z,100151.06
2023-04-25T03:26:57.831Z,100152.84
2023-04-25T03:29:28.024Z,100151.25
2023-04-25T03:31:56.122Z,100154.34
2023-04-25T03:34:25.354Z,100142.06
2023-04-25T03:36:53.525Z,100157.16
2023-04-25T03:39:21.865Z,100150.91
2023-04-25T03:41:49.933Z,100152.34
2023-04-25T03:44:18.237Z,100149.66
2023-04-25T03:46:46.653Z,100150.44
2023-04-25T03:49:17.164Z,100144.41
2023-04-25T03:51:47.432Z,100143.66
2023-04-25T03:54:15.600Z,100145.09
2023-04-25T03:56:45.842Z,100138.72
2023-04-25T03:59:14.045Z,100130.78
2023-04-25T04:01:42.322Z,100130.63
2023-04-25T04:04:10.779Z,100132.75
2023-04-25T04:06:39.214Z,100132.00
2023-04-25T04:09:11.278Z,100144.34
2023-04-25T04:11:40.013Z,100136.00
2023-04-25T04:14:08.643Z,100135.81
2023-04-25T04:16:37.163Z,100129.75
2023-04-25T04:19:05.450Z,100120.16
2023-04-25T04:21:34.837Z,100123.78
2023-04-25T04:24:03.139Z,100117.22
2023-04-25T04:26:33.256Z,100113.63
2023-04-25T04:29:01.988Z,100116.28
2023-04-25T04:31:31.691Z,100121.19
2023-04-25T04:33:59.801Z,100110.44
2023-04-25T04:36:28.151Z,100111.16
2023-04-25T04:38:57.765Z,100097.75
2023-04-25T04:41:25.910Z,100113.69
2023-04-25T04:43:54.613Z,100105.81
2023-04-25T04:46:23.121Z,100111.69
2023-04-25T04:48:51.253Z,100113.09
2023-04-25T04:51:19.445Z,100117.63
2023-04-25T04:53:47.455Z,100101.66
2023-04-25T04:56:16.029Z,100102.00
2023-04-25T04:58:46.081Z,100099.69
2023-04-25T05:01:17.549Z,100107.06
2023-04-25T05:03:48.912Z,100109.84
2023-04-25T05:06:18.645Z,100109.47
2023-04-25T05:08:46.982Z,100105.06
2023-04-25T05:11:15.313Z,100104.66
2023-04-25T05:13:44.241Z,100101.84
2023-04-25T05:16:13.161Z,100101.81
2023-04-25T05:18:41.698Z,100101.34
2023-04-25T05:21:09.854Z,100100.31
2023-04-25T05:23:39.152Z,100101.34
2023-04-25T05:26:07.573Z,100091.69
2023-04-25T05:28:37.911Z,100095.06
2023-04-25T05:31:06.247Z,100092.34
2023-04-25T05:33:34.662Z,100096.25
2023-04-25T05:36:03.096Z,100090.50
2023-04-25T05:38:33.204Z,100091.69
2023-04-25T05:41:02.966Z,100101.56
2023-04-25T05:43:31.093Z,100102.03
2023-04-25T05:45:59.444Z,100098.47
2023-04-25T05:48:27.589Z,100098.63
2023-04-25T05:50:55.739Z,100096.94
2023-04-25T05:53:24.060Z,100100.34
2023-04-25T05:55:54.958Z,100092.53
2023-04-25T05:58:23.436Z,100090.16
2023-04-25T06:00:52.366Z,100089.63
2023-04-25T06:03:21.647Z,100086.72
2023-04-25T06:05:50.389Z,100089.28
2023-04-25T06:08:19.185Z,100081.81
2023-04-25T06:10:47.231Z,100094.72
2023-04-25T06:13:15.457Z,100093.91
2023-04-25T06:15:44.385Z,100092.53
2023-04-25T06:18:13.899Z,100097.28
2023-04-25T06:20:42.931Z,100093.41
2023-04-25T06:23:11.062Z,100092.84
2023-04-25T06:25:39.249Z,100095.91
2023-04-25T06:28:07.635Z,100090.97
2023-04-25T06:30:36.554Z,100095.38
2023-04-25T06:33:04.798Z,100090.97
2023-04-25T06:35:33.460Z,100092.00
2023-04-25T06:38:01.583Z,100086.88
2023-04-25T06:40:29.678Z,100089.41
2023-04-25T06:42:57.545Z,100081.75
2023-04-25T06:45:26.092Z,100079.44
2023-04-25T06:47:56.148Z,100080.28
2023-04-25T06:50:24.406Z,100085.88
2023-04-25T06:52:52.534Z,100089.03
2023-04-25T06:55:23.286Z,100084.78
2023-04-25T06:57:51.161Z,100087.34
2023-04-25T07:00:19.640Z,100084.09
2023-04-25T07:02:47.980Z,100083.84
2023-04-25T07:05:18.728Z,100087.41
2023-04-25T07:07:47.510Z,100093.03
2023-04-25T07:10:15.752Z,100082.06
2023-04-25T07:12:46.527Z,100086.81
2023-04-25T07:15:14.839Z,100092.31
2023-04-25T07:17:43.380Z,100092.38
2023-04-25T07:20:13.930Z,100090.56
2023-04-25T07:22:41.979Z,100101.75
2023-04-25T07:25:10.484Z,100082.59
2023-04-25T07:27:39.170Z,100099.16
2023-04-25T07:30:08.511Z,100093.69
2023-04-25T07:32:37.079Z,100094.44
2023-04-25T07:35:05.742Z,100089.31
2023-04-25T07:37:34.921Z,100098.97
2023-04-25T07:40:05.241Z,100096.81
2023-04-25T07:42:36.173Z,100096.91
2023-04-25T07:45:10.689Z,100088.22
2023-04-25T07:47:39.787Z,100097.94
2023-04-25T07:50:12.489Z,100082.66
2023-04-25T07:52:40.742Z,100085.94
2023-04-25T07:55:33.526Z,100089.28
2023-04-25T07:58:01.743Z,100088.47
2023-04-25T08:00:30.492Z,100083.66
2023-04-25T08:02:59.063Z,100088.50
2023-04-25T08:05:27.330Z,100086.78
2023-04-25T08:07:56.784Z,100081.31
2023-04-25T08:10:25.310Z,100083.44
2023-04-25T08:12:53.547Z,100081.41
2023-04-25T08:15:21.649Z,100072.97
2023-04-25T08:17:49.663Z,100073.28
2023-04-25T08:20:17.704Z,100071.22
2023-04-25T08:22:46.111Z,100073.44
2023-04-25T08:25:16.545Z,100068.78
2023-04-25T08:27:47.737Z,100072.03
2023-04-25T08:30:16.040Z,100062.66
2023-04-25T08:32:47.335Z,100054.09
2023-04-25T08:35:15.483Z,100056.47
2023-04-25T08:37:47.813Z,100050.66
2023-04-25T08:40:16.550Z,100049.31
2023-04-25T08:42:44.944Z,100048.59
2023-04-25T08:45:15.118Z,100047.00
2023-04-25T08:47:46.383Z,100046.50
2023-04-25T08:50:14.765Z,100048.63
2023-04-25T08:52:46.858Z,100043.16
2023-04-25T08:55:15.566Z,100040.88
2023-04-25T08:57:44.351Z,100045.00
2023-04-25T09:00:17.654Z,100043.75
2023-04-25T09:02:46.283Z,100037.38
2023-04-25T09:05:15.581Z,100027.22
2023-04-25T09:07:43.996Z,100035.00
2023-04-25T09:10:12.413Z,100031.41
2023-04-25T09:12:41.078Z,100040.97
2023-04-25T09:15:11.455Z,100031.13
2023-04-25T09:17:46.540Z,100029.84
2023-04-25T09:20:16.496Z,100028.00
2023-04-25T09:22:47.362Z,100026.78
2023-04-25T09:25:19.292Z,100022.81
2023-04-25T09:27:54.541Z,100020.28
2023-04-25T09:30:35.818Z,100024.97
2023-04-25T09:33:14.066Z,100016.75
2023-04-25T09:35:45.407Z,100020.88
2023-04-25T09:38:15.383Z,100015.06
2023-04-25T09:40:46.369Z,100017.38
2023-04-25T09:43:21.996Z,100013.00
2023-04-25T09:46:15.566Z,100013.38
2023-04-25T09:48:50.296Z,100013.50
2023-04-25T09:51:21.833Z,100018.59
2023-04-25T09:53:54.278Z,100018.59
2023-04-25T09:56:23.369Z,100013.16
2023-04-25T09:58:52.695Z,100012.84
2023-04-25T10:01:21.681Z,100019.81
2023-04-25T10:03:52.084Z,100013.59
2023-04-25T10:06:24.305Z,100008.84
2023-04-25T10:08:53.233Z,100015.09
2023-04-25T10:11:24.394Z,100004.09
2023-04-25T10:13:59.023Z,100007.38
2023-04-25T10:16:27.347Z,100007.50
2023-04-25T10:18:56.559Z,100010.59
2023-04-25T10:21:25.838Z,99990.03
2023-04-25T10:23:54.395Z,99998.59
2023-04-25T10:26:23.495Z,99998.94
2023-04-25T10:29:05.070Z,99992.56
2023-04-25T10:31:34.380Z,99994.44
2023-04-25T10:34:03.239Z,99996.88
2023-04-25T10:36:33.809Z,99993.34
2023-04-25T10:39:13.448Z,99989.94
2023-04-25T10:41:49.586Z,99990.91
2023-04-25T10:44:17.909Z,99993.97
2023-04-25T10:46:50.184Z,99983.44
2023-04-25T10:49:36.836Z,99984.03
2023-04-25T10:52:25.406Z,99982.53
2023-04-25T10:54:58.534Z,99979.38
2023-04-25T10:57:48.717Z,99980.69
2023-04-25T11:00:25.610Z,99985.78
2023-04-25T11:03:01.443Z,99978.72
2023-04-25T11:05:50.929Z,99979.91
2023-04-25T11:08:35.492Z,99972.19
2023-04-25T11:11:04.459Z,99979.34
2023-04-25T11:13:35.705Z,99968.59
2023-04-25T11:16:12.362Z,99973.78
2023-04-25T11:18:47.317Z,99969.19
2023-04-25T11:21:15.373Z,99959.06
2023-04-25T11:23:46.711Z,99958.22
2023-04-25T11:26:16.443Z,99964.75
2023-04-25T11:28:50.653Z,99962.03
2023-04-25T11:31:26.347Z,99955.06
2023-04-25T11:33:57.001Z,99951.72
2023-04-25T11:36:25.733Z,99957.81
2023-04-25T11:38:55.016Z,99951.91
2023-04-25T11:41:23.628Z,99948.28
2023-04-25T11:43:53.522Z,99954.81
2023-04-25T11:46:22.774Z,99951.13
2023-04-25T11:48:52.959Z,99946.63
2023-04-25T11:51:24.123Z,99945.00
2023-04-25T11:53:52.640Z,99941.94
2023-04-25T11:56:22.166Z,99951.06
2023-04-25T11:59:20.313Z,99952.66
2023-04-25T12:01:52.175Z,99933.66
2023-04-25T12:04:33.387Z,99941.13
2023-04-25T12:07:05.042Z,99939.09
2023-04-25T12:09:34.717Z,99947.34
2023-04-25T12:12:04.385Z,99931.28
2023-04-25T12:14:37.337Z,99933.00
2023-04-25T12:17:07.818Z,99935.38
2023-04-25T12:19:37.405Z,99925.44
2023-04-25T12:22:21.527Z,99935.44
2023-04-25T12:24:59.805Z,99921.13
2023-04-25T12:27:29.619Z,99922.44
2023-04-25T12:29:58.931Z,99917.59
2023-04-25T12:32:28.004Z,99914.84
2023-04-25T12:34:57.357Z,99919.97
2023-04-25T12:37:25.921Z,99911.81
2023-04-25T12:39:54.029Z,99896.91
2023-04-25T12:42:22.363Z,99908.47
2023-04-25T12:44:53.938Z,99889.75
2023-04-25T12:47:22.529Z,99898.06
2023-04-25T12:49:50.664Z,99890.28
2023-04-25T12:52:18.848Z,99884.63
2023-04-25T12:54:54.261Z,99893.88
2023-04-25T12:57:27.315Z,99886.75
2023-04-25T12:59:55.447Z,99888.53
2023-04-25T13:02:23.586Z,99895.75
2023-04-25T13:04:53.181Z,99885.75
2023-04-25T13:07:21.682Z,99874.91
2023-04-25T13:09:49.557Z,99880.72
2023-04-25T13:12:17.949Z,99884.38
2023-04-25T13:14:46.149Z,99877.44
2023-04-25T13:17:14.518Z,99883.47
2023-04-25T13:19:42.704Z,99879.44
2023-04-25T13:22:10.805Z,99880.69
2023-04-25T13:24:38.698Z,99879.91
2023-04-25T13:27:07.278Z,99885.56
2023-04-25T13:29:36.965Z,99894.13
2023-04-25T13:32:07.746Z,99891.41
2023-04-25T13:34:36.227Z,99903.00
2023-04-25T13:37:07.982Z,99890.38
2023-04-25T13:39:37.417Z,99895.75
2023-04-25T13:42:06.856Z,99892.72
2023-04-25T13:44:35.461Z,99891.50
2023-04-25T13:47:04.040Z,99886.81
2023-04-25T13:49:32.865Z,99899.44
2023-04-25T13:52:01.226Z,99900.16
2023-04-25T13:54:29.671Z,99898.03
2023-04-25T13:57:00.698Z,99891.63
2023-04-25T13:59:29.733Z,99891.50
2023-04-25T14:01:58.082Z,99894.19
2023-04-25T14:04:27.840Z,99899.50
2023-04-25T14:06:56.566Z,99896.69
2023-04-25T14:09:26.965Z,99894.19
2023-04-25T14:11:55.928Z,99899.97
2023-04-25T14:14:43.885Z,99894.72
2023-04-25T14:17:12.712Z,99896.19
2023-04-25T14:19:47.088Z,99893.94
2023-04-25T14:22:17.014Z,99902.47
2023-04-25T14:24:45.254Z,99905.63
2023-04-25T14:27:13.829Z,99901.31
2023-04-25T14:29:42.172Z,99906.69
2023-04-25T14:32:10.638Z,99901.59
2023-04-25T14:34:38.732Z,99901.38
2023-04-25T14:37:06.582Z,99894.41
2023-04-25T14:39:38.123Z,99891.88
2023-04-25T14:42:09.581Z,99893.34
2023-04-25T14:44:38.204Z,99886.91
2023-04-25T14:47:06.514Z,99888.53
2023-04-25T14:49:34.988Z,99886.69
2023-04-25T14:52:03.212Z,99883.09
2023-04-25T14:54:31.479Z,99872.47
2023-04-25T14:56:59.599Z,99878.19
2023-04-25T14:59:33.179Z,99880.75
2023-04-25T15:02:01.892Z,99878.88
2023-04-25T15:04:31.180Z,99873.72
2023-04-25T15:07:00.524Z,99865.25
2023-04-25T15:09:29.722Z,99870.22
2023-04-25T15:11:59.162Z,99863.47
2023-04-25T15:14:27.496Z,99857.66
2023-04-25T15:16:56.164Z,99850.53
2023-04-25T15:19:24.897Z,99856.09
2023-04-25T15:21:55.988Z,99857.75
2023-04-25T15:24:24.539Z,99851.94
2023-04-25T15:26:52.719Z,99856.31
2023-04-25T15:29:21.620Z,99851.22
2023-04-25T15:31:49.651Z,99840.44
2023-04-25T15:34:18.664Z,99842.75
2023-04-25T15:36:46.987Z,99831.28
2023-04-25T15:39:15.174Z,99839.50
2023-04-25T15:41:45.326Z,99840.97
2023-04-25T15:44:13.574Z,99841.19
2023-04-25T15:46:41.837Z,99839.38
2023-04-25T15:49:10.124Z,99836.69
2023-04-25T15:51:38.453Z,99836.09
2023-04-25T15:54:06.649Z,99834.25
2023-04-25T15:56:36.898Z,99834.78
2023-04-25T15:59:05.008Z,99839.94
2023-04-25T16:01:33.557Z,99835.38
2023-04-25T16:04:01.870Z,99831.00
2023-04-25T16:06:30.751Z,99839.03
2023-04-25T16:09:00.774Z,99830.78
2023-04-25T16:11:31.488Z,99834.50
2023-04-25T16:13:59.691Z,99839.63
2023-04-25T16:16:28.455Z,99847.22
2023-04-25T16:18:56.853Z,99842.19
2023-04-25T16:21:25.350Z,99839.47
2023-04-25T16:23:53.932Z,99839.97
2023-04-25T16:26:22.940Z,99851.13
2023-04-25T16:28:51.089Z,99845.38
2023-04-25T16:31:21.647Z,99843.97
2023-04-25T16:33:50.264Z,99841.56
2023-04-25T16:36:18.386Z,99840.53
2023-04-25T16:38:48.510Z,99850.50
2023-04-25T16:41:19.376Z,99849.56
2023-04-25T16:43:47.427Z,99844.94
2023-04-25T16:46:18.835Z,99847.63
2023-04-25T16:48:49.150Z,99854.84
2023-04-25T16:51:17.670Z,99851.75
2023-04-25T16:53:46.875Z,99849.47
2023-04-25T16:56:15.128Z,99853.03
2023-04-25T16:58:43.483Z,99848.22
2023-04-25T17:01:16.258Z,99849.03
2023-04-25T17:03:45.924Z,99843.63
2023-04-25T17:06:14.731Z,99850.50
2023-04-25T17:08:45.409Z,99857.88
2023-04-25T17:11:15.688Z,99861.19
2023-04-25T17:13:47.389Z,99861.69
2023-04-25T17:16:17.101Z,99865.03
2023-04-25T17:18:48.608Z,99864.75
2023-04-25T17:21:17.426Z,99872.03
2023-04-25T17:23:48.158Z,99871.47
2023-04-25T17:26:17.064Z,99879.38
2023-04-25T17:28:49.833Z,99882.47
2023-04-25T17:31:18.428Z,99886.63
2023-04-25T17:33:46.649Z,99889.09
2023-04-25T17:36:15.399Z,99891.88
2023-04-25T17:38:43.626Z,99895.44
2023-04-25T17:41:13.408Z,99890.16
2023-04-25T17:43:41.884Z,99895.47
2023-04-25T17:46:11.513Z,99903.72
2023-04-25T17:48:39.570Z,99898.50
2023-04-25T17:51:08.151Z,99896.78
2023-04-25T17:53:36.946Z,99898.06
2023-04-25T17:56:25.335Z,99902.50
2023-04-25T17:58:55.367Z,99906.97
2023-04-25T18:01:25.271Z,99902.69
2023-04-25T18:03:55.500Z,99907.25
2023-04-25T18:06:25.885Z,99906.41
2023-04-25T18:08:54.194Z,99907.53
2023-04-25T18:11:22.609Z,99899.03
2023-04-25T18:13:50.835Z,99910.28
2023-04-25T18:16:19.047Z,99907.50
2023-04-25T18:18:54.334Z,99909.34
2023-04-25T18:21:23.089Z,99908.34
2023-04-25T18:23:55.628Z,99903.97
2023-04-25T18:26:23.871Z,99894.63
2023-04-25T18:28:52.484Z,99899.88
2023-04-25T18:31:25.791Z,99901.00
2023-04-25T18:33:54.278Z,99901.19
2023-04-25T18:36:22.583Z,99901.31
2023-04-25T18:38:56.609Z,99908.00
2023-04-25T18:41:52.186Z,99905.59
2023-04-25T18:44:18.880Z,99895.91
2023-04-25T18:46:47.606Z,99903.28
2023-04-25T18:49:16.159Z,99908.16
2023-04-25T18:51:44.685Z,99903.84
2023-04-25T18:54:13.062Z,99912.72
2023-04-25T18:56:41.569Z,99908.28
2023-04-25T18:59:09.503Z,99904.19
2023-04-25T19:01:37.675Z,99902.03
2023-04-25T19:04:08.397Z,99906.59
2023-04-25T19:06:36.989Z,99904.06
2023-04-25T19:09:05.759Z,99903.59
2023-04-25T19:11:34.896Z,99911.16
2023-04-25T19:14:03.514Z,99911.28
2023-04-25T19:16:39.235Z,99906.47
2023-04-25T19:19:10.258Z,99904.50
2023-04-25T19:21:38.383Z,99903.94
2023-04-25T19:24:07.293Z,99902.94
2023-04-25T19:26:36.176Z,99899.00
2023-04-25T19:29:09.235Z,99899.16
2023-04-25T19:31:38.310Z,99897.59
2023-04-25T19:34:07.367Z,99897.16
2023-04-25T19:36:39.453Z,99890.63
2023-04-25T19:39:08.061Z,99890.88
2023-04-25T19:41:40.848Z,99881.81
2023-04-25T19:44:09.776Z,99887.94
2023-04-25T19:46:38.382Z,99893.75
2023-04-25T19:49:08.555Z,99889.78
2023-04-25T19:51:37.612Z,99899.72
2023-04-25T19:54:06.246Z,99893.47
2023-04-25T19:56:34.413Z,99896.31
2023-04-25T19:59:03.717Z,99890.47
2023-04-25T20:01:32.102Z,99899.44
2023-04-25T20:04:00.468Z,99903.13
2023-04-25T20:06:29.430Z,99904.41
2023-04-25T20:08:58.018Z,99910.09
2023-04-25T20:11:29.244Z,99908.81
2023-04-25T20:14:00.579Z,99906.41
2023-04-25T20:16:30.819Z,99907.25
2023-04-25T20:19:02.475Z,99904.41
2023-04-25T20:21:37.145Z,99909.38
2023-04-25T20:24:05.759Z,99916.47
2023-04-25T20:26:34.571Z,99913.22
2023-04-25T20:29:03.002Z,99925.00
2023-04-25T20:31:32.440Z,99917.75
2023-04-25T20:34:03.985Z,99923.28
2023-04-25T20:36:32.766Z,99920.28
2023-04-25T20:39:01.297Z,99923.88
2023-04-25T20:41:31.265Z,99926.00
2023-04-25T20:43:59.786Z,99931.09
2023-04-25T20:46:28.207Z,99933.94
2023-04-25T20:48:56.882Z,99936.91
2023-04-25T20:51:27.997Z,99940.59
2023-04-25T20:53:56.069Z,99939.03
2023-04-25T20:56:24.873Z,99945.41
2023-04-25T20:58:53.785Z,99943.72
2023-04-25T21:01:22.905Z,99950.78
2023-04-25T21:03:53.780Z,99954.91
2023-04-25T21:06:22.557Z,99956.44
2023-04-25T21:08:51.370Z,99954.44
2023-04-25T21:11:19.867Z,99951.47
2023-04-25T21:13:48.355Z,99960.66
2023-04-25T21:16:16.747Z,99962.34
2023-04-25T21:18:45.244Z,99969.94
2023-04-25T21:21:14.288Z,99965.41
2023-04-25T21:23:46.485Z,99974.50
2023-04-25T21:26:14.975Z,99983.25
2023-04-25T21:28:43.461Z,99974.31
2023-04-25T21:31:14.044Z,99972.72
2023-04-25T21:33:42.297Z,99967.91
2023-04-25T21:36:10.186Z,99973.81
2023-04-25T21:38:38.358Z,99977.31
2023-04-25T21:41:06.586Z,99970.75
2023-04-25T21:43:37.781Z,99968.34
2023-04-25T21:46:22.464Z,99965.47
2023-04-25T21:48:54.785Z,99969.06
2023-04-25T21:51:23.485Z,99968.47
2023-04-25T21:53:51.741Z,99973.16
2023-04-25T21:56:19.880Z,99977.34
2023-04-25T21:58:48.351Z,99977.59
2023-04-25T22:01:21.572Z,99971.06
2023-04-25T22:03:52.891Z,99980.22
2023-04-25T22:06:21.323Z,99975.66
2023-04-25T22:08:50.150Z,99978.13
2023-04-25T22:11:18.932Z,99972.34
2023-04-25T22:13:49.867Z,99974.06
2023-04-25T22:16:18.243Z,99981.81
2023-04-25T22:18:47.077Z,99977.66
2023-04-25T22:21:15.404Z,99975.47
2023-04-25T22:23:43.742Z,99975.81
2023-04-25T22:26:14.985Z,99967.16
2023-04-25T22:28:44.881Z,99975.38
2023-04-25T22:31:13.008Z,99968.78
2023-04-25T22:33:41.296Z,99968.94
2023-04-25T22:36:09.866Z,99972.31
2023-04-25T22:38:39.201Z,99979.69
2023-04-25T22:41:07.586Z,99983.00
2023-04-25T22:43:35.806Z,99980.44
2023-04-25T22:46:03.898Z,99984.47
2023-04-25T22:48:32.304Z,99977.66
2023-04-25T22:51:06.396Z,99975.56
2023-04-25T22:53:37.780Z,99973.03
2023-04-25T22:56:07.755Z,99970.91
2023-04-25T22:58:35.932Z,99973.97
2023-04-25T23:01:04.883Z,99978.25
2023-04-25T23:03:36.664Z,99985.84
2023-04-25T23:06:05.736Z,99978.56
2023-04-25T23:08:33.979Z,99975.34
2023-04-25T23:11:10.857Z,99981.47
2023-04-25T23:13:39.360Z,99983.94
2023-04-25T23:16:09.230Z,99986.75
2023-04-25T23:18:39.727Z,99985.06
2023-04-25T23:21:14.088Z,99995.66
2023-04-25T23:23:42.734Z,99994.19
2023-04-25T23:26:11.357Z,99994.06
2023-04-25T23:28:41.651Z,99998.72
2023-04-25T23:31:11.051Z,99990.75
2023-04-25T23:33:42.268Z,100001.03
2023-04-25T23:36:21.622Z,99995.06
2023-04-25T23:38:56.437Z,100002.63
2023-04-25T23:41:25.672Z,100004.09
2023-04-25T23:43:56.958Z,100000.19
2023-04-25T23:46:25.061Z,100001.41
2023-04-25T23:48:53.488Z,99998.72
2023-04-25T23:51:21.814Z,99998.25
2023-04-25T23:53:49.717Z,100001.66
2023-04-25T23:56:17.738Z,100002.63
2023-04-25T23:58:47.093Z,99992.50
